createdAt,value
2019-03-29T00:01:35.452Z,94.31
2019-03-29T00:04:06.315Z,94.69
2019-03-29T00:06:37.562Z,95.08
2019-03-29T00:09:08.976Z,95.04
2019-03-29T00:11:39.836Z,94.43
2019-03-29T00:14:10.583Z,93.80
2019-03-29T00:16:41.369Z,94.83
2019-03-29T00:19:12.128Z,95.63
2019-03-29T00:21:42.947Z,95.42
2019-03-29T00:24:14.946Z,95.69
2019-03-29T00:26:45.908Z,95.08
2019-03-29T00:29:16.709Z,95.11
2019-03-29T00:31:47.501Z,94.26
2019-03-29T00:34:18.434Z,93.79
2019-03-29T00:36:49.150Z,93.61
2019-03-29T00:39:19.898Z,94.45
2019-03-29T00:41:50.971Z,94.96
2019-03-29T00:44:21.857Z,94.97
2019-03-29T00:46:52.628Z,95.34
2019-03-29T00:49:23.420Z,95.06
2019-03-29T00:51:54.220Z,95.04
2019-03-29T00:54:25.120Z,94.47
2019-03-29T00:56:55.857Z,93.75
2019-03-29T00:59:26.698Z,93.51
2019-03-29T01:01:58.501Z,93.57
2019-03-29T01:04:29.335Z,93.78
2019-03-29T01:07:00.095Z,93.91
2019-03-29T01:09:31.918Z,94.83
2019-03-29T01:12:02.870Z,95.45
2019-03-29T01:14:33.605Z,95.48
2019-03-29T01:17:04.339Z,95.46
2019-03-29T01:19:35.359Z,94.67
2019-03-29T01:22:06.201Z,94.58
2019-03-29T01:24:36.938Z,94.42
2019-03-29T01:27:07.697Z,94.68
2019-03-29T01:29:38.665Z,94.87
2019-03-29T01:32:09.553Z,95.81
2019-03-29T01:34:40.308Z,96.07
2019-03-29T01:37:11.052Z,95.70
2019-03-29T01:39:43.278Z,95.43
2019-03-29T01:42:14.099Z,94.99
2019-03-29T01:44:44.830Z,94.93
2019-03-29T01:47:15.556Z,95.45
2019-03-29T01:49:46.367Z,95.63
2019-03-29T01:52:17.161Z,95.00
2019-03-29T01:54:48.685Z,95.17
2019-03-29T01:57:19.422Z,95.78
2019-03-29T01:59:50.218Z,95.22
2019-03-29T02:02:21.106Z,94.60
2019-03-29T02:04:52.220Z,94.30
2019-03-29T02:07:22.968Z,94.42
2019-03-29T02:09:53.754Z,94.27
2019-03-29T02:12:24.536Z,94.34
2019-03-29T02:14:56.468Z,94.13
2019-03-29T02:17:27.210Z,93.94
2019-03-29T02:19:58.358Z,93.93
2019-03-29T02:22:30.220Z,93.75
2019-03-29T02:25:00.990Z,94.02
2019-03-29T02:27:31.784Z,94.49
2019-03-29T02:30:04.372Z,94.48
2019-03-29T02:32:35.399Z,94.84
2019-03-29T02:35:06.385Z,95.22
2019-03-29T02:37:37.174Z,95.12
2019-03-29T02:40:08.168Z,94.80
2019-03-29T02:42:38.937Z,95.02
2019-03-29T02:45:09.789Z,95.41
2019-03-29T02:47:40.533Z,95.65
2019-03-29T02:50:11.799Z,95.47
2019-03-29T02:52:42.735Z,95.15
2019-03-29T02:55:13.929Z,95.24
2019-03-29T02:57:44.671Z,95.25
2019-03-29T03:00:15.775Z,95.13
2019-03-29T03:02:46.612Z,96.00
2019-03-29T03:05:17.441Z,96.44
2019-03-29T03:07:48.181Z,96.78
2019-03-29T03:10:19.044Z,97.01
2019-03-29T03:12:49.880Z,97.36
2019-03-29T03:15:20.656Z,97.23
2019-03-29T03:17:51.424Z,97.35
2019-03-29T03:20:22.328Z,97.16
2019-03-29T03:22:53.230Z,96.77
2019-03-29T03:25:23.986Z,96.27
2019-03-29T03:27:54.705Z,96.13
2019-03-29T03:30:25.491Z,95.68
2019-03-29T03:32:56.319Z,95.51
2019-03-29T03:35:27.124Z,95.74
2019-03-29T03:37:57.842Z,95.93
2019-03-29T03:40:28.607Z,96.50
2019-03-29T03:42:59.401Z,95.97
2019-03-29T03:45:30.189Z,95.62
2019-03-29T03:48:00.931Z,95.85
2019-03-29T03:50:43.722Z,96.10
2019-03-29T03:53:14.584Z,95.64
2019-03-29T03:55:46.446Z,96.12
2019-03-29T03:58:19.622Z,96.16
2019-03-29T04:00:58.175Z,95.94
2019-03-29T04:03:28.984Z,95.38
2019-03-29T04:05:59.780Z,95.23
2019-03-29T04:08:30.548Z,95.02
2019-03-29T04:11:01.338Z,95.33
2019-03-29T04:13:32.162Z,94.88
2019-03-29T04:16:03.070Z,95.34
2019-03-29T04:18:33.795Z,95.35
2019-03-29T04:21:04.789Z,95.43
2019-03-29T04:23:35.625Z,95.54
2019-03-29T04:26:06.395Z,95.86
2019-03-29T04:28:38.209Z,95.72
2019-03-29T04:31:09.028Z,96.18
2019-03-29T04:33:39.789Z,96.86
2019-03-29T04:36:10.865Z,97.07
2019-03-29T04:38:41.620Z,96.86
2019-03-29T04:41:12.398Z,97.25
2019-03-29T04:43:43.164Z,97.41
2019-03-29T04:46:14.002Z,97.55
2019-03-29T04:48:44.736Z,97.50
2019-03-29T04:51:15.542Z,96.96
2019-03-29T04:53:46.374Z,96.33
2019-03-29T04:56:17.283Z,96.13
2019-03-29T04:58:48.082Z,96.03
2019-03-29T05:01:18.823Z,96.12
2019-03-29T05:03:49.610Z,96.49
2019-03-29T05:06:20.422Z,96.69
2019-03-29T05:08:51.291Z,95.93
2019-03-29T05:11:22.012Z,95.63
2019-03-29T05:13:52.829Z,96.51
2019-03-29T05:16:23.646Z,97.05
2019-03-29T05:18:54.457Z,96.70
2019-03-29T05:21:25.226Z,96.07
2019-03-29T05:23:56.132Z,95.70
2019-03-29T05:26:26.902Z,96.81
2019-03-29T05:28:57.688Z,97.13
2019-03-29T05:31:28.511Z,97.00
2019-03-29T05:33:59.255Z,96.50
2019-03-29T05:36:30.175Z,96.04
2019-03-29T05:39:01.032Z,96.16
2019-03-29T05:41:33.633Z,95.83
2019-03-29T05:44:04.336Z,95.00
2019-03-29T05:46:35.147Z,94.33
2019-03-29T05:49:05.998Z,94.20
2019-03-29T05:51:37.015Z,95.36
2019-03-29T05:54:07.759Z,96.29
2019-03-29T05:56:38.983Z,97.34
2019-03-29T05:59:09.711Z,97.67
2019-03-29T06:01:40.565Z,97.69
2019-03-29T06:04:11.321Z,97.60
2019-03-29T06:06:42.375Z,97.56
2019-03-29T06:09:13.165Z,97.19
2019-03-29T06:11:44.038Z,96.99
2019-03-29T06:14:14.807Z,96.39
2019-03-29T06:16:45.632Z,95.97
2019-03-29T06:19:16.519Z,95.83
2019-03-29T06:21:47.478Z,95.82
2019-03-29T06:24:18.317Z,94.45
2019-03-29T06:26:49.132Z,93.78
2019-03-29T06:29:19.859Z,93.35
2019-03-29T06:31:50.778Z,93.19
2019-03-29T06:34:21.511Z,92.57
2019-03-29T06:36:53.911Z,92.22
2019-03-29T06:39:26.773Z,92.58
2019-03-29T06:41:57.638Z,92.63
2019-03-29T06:44:31.005Z,92.23
2019-03-29T06:47:04.126Z,92.35
2019-03-29T06:49:35.325Z,92.52
2019-03-29T06:52:06.508Z,94.39
2019-03-29T06:54:37.357Z,93.92
2019-03-29T06:57:19.378Z,92.21
2019-03-29T07:00:00.500Z,92.45
2019-03-29T07:02:54.278Z,92.98
2019-03-29T07:05:59.553Z,92.95
2019-03-29T07:08:45.702Z,92.93
2019-03-29T07:11:21.195Z,94.04
2019-03-29T07:13:57.871Z,94.06
2019-03-29T07:16:25.076Z,93.47
2019-03-29T07:18:55.881Z,92.87
2019-03-29T07:21:32.965Z,90.47
2019-03-29T07:24:03.952Z,89.29
2019-03-29T07:26:34.799Z,89.10
2019-03-29T07:29:05.724Z,89.20
2019-03-29T07:31:36.585Z,89.25
2019-03-29T07:34:07.479Z,87.17
2019-03-29T07:36:38.779Z,84.06
2019-03-29T07:39:09.574Z,84.19
2019-03-29T07:41:44.514Z,85.18
2019-03-29T07:44:16.431Z,86.79
2019-03-29T07:46:47.525Z,85.10
2019-03-29T07:49:19.480Z,86.14
2019-03-29T07:51:50.966Z,85.92
2019-03-29T07:54:22.034Z,87.29
2019-03-29T07:56:56.011Z,85.04
2019-03-29T07:59:30.009Z,84.05
2019-03-29T08:02:02.365Z,84.55
2019-03-29T08:04:34.348Z,82.74
2019-03-29T08:07:06.284Z,81.29
2019-03-29T08:09:37.533Z,82.16
2019-03-29T08:12:16.518Z,80.52
2019-03-29T08:14:48.347Z,80.96
2019-03-29T08:17:27.834Z,81.63
2019-03-29T08:20:37.362Z,78.41
2019-03-29T08:22:46.371Z,78.52
2019-03-29T08:25:25.874Z,78.87
2019-03-29T08:28:04.720Z,78.39
2019-03-29T08:30:44.786Z,78.97
2019-03-29T08:33:24.726Z,78.31
2019-03-29T08:36:19.857Z,74.31
2019-03-29T08:38:52.651Z,70.94
2019-03-29T08:41:23.648Z,73.35
2019-03-29T08:43:54.493Z,73.68
2019-03-29T08:46:25.318Z,74.00
2019-03-29T08:48:56.537Z,66.71
2019-03-29T08:51:27.331Z,67.66
2019-03-29T08:53:59.038Z,67.74
2019-03-29T08:56:30.066Z,69.79
2019-03-29T08:59:04.653Z,65.68
2019-03-29T09:01:35.968Z,67.60
2019-03-29T09:04:06.823Z,68.87
2019-03-29T09:06:37.681Z,70.06
2019-03-29T09:09:11.860Z,70.33
2019-03-29T09:11:41.690Z,72.86
2019-03-29T09:14:12.472Z,70.75
2019-03-29T09:16:43.336Z,69.75
2019-03-29T09:19:16.546Z,70.45
2019-03-29T09:21:47.302Z,71.50
2019-03-29T09:24:22.223Z,71.11
2019-03-29T09:26:50.602Z,69.95
2019-03-29T09:29:22.741Z,71.55
2019-03-29T09:31:53.555Z,70.82
2019-03-29T09:34:24.426Z,67.83
2019-03-29T09:36:59.896Z,68.87
2019-03-29T09:39:32.749Z,71.48
2019-03-29T09:42:04.142Z,73.33
2019-03-29T09:44:34.979Z,71.50
2019-03-29T09:47:05.759Z,68.77
2019-03-29T09:49:36.677Z,69.50
2019-03-29T09:52:07.437Z,68.88
2019-03-29T09:54:38.198Z,66.53
2019-03-29T09:57:10.143Z,67.33
2019-03-29T09:59:41.937Z,66.95
2019-03-29T10:02:13.093Z,65.82
2019-03-29T10:04:43.838Z,65.91
2019-03-29T10:07:14.675Z,62.61
2019-03-29T10:09:45.490Z,63.29
2019-03-29T10:12:17.014Z,62.41
2019-03-29T10:14:51.283Z,62.61
2019-03-29T10:17:22.569Z,62.17
2019-03-29T10:19:53.417Z,61.38
2019-03-29T10:22:24.200Z,62.73
2019-03-29T10:24:55.219Z,63.86
2019-03-29T10:27:26.098Z,62.28
2019-03-29T10:29:58.190Z,62.41
2019-03-29T10:32:29.028Z,62.68
2019-03-29T10:35:00.015Z,59.47
2019-03-29T10:37:30.875Z,57.02
2019-03-29T10:40:01.799Z,56.73
2019-03-29T10:42:32.711Z,59.01
2019-03-29T10:45:03.820Z,57.84
2019-03-29T10:47:43.629Z,59.89
2019-03-29T10:50:07.842Z,59.45
2019-03-29T10:52:40.982Z,58.68
2019-03-29T10:55:13.549Z,56.98
2019-03-29T10:57:47.202Z,61.30
2019-03-29T11:00:25.784Z,60.59
2019-03-29T11:02:56.946Z,58.91
2019-03-29T11:05:27.734Z,58.96
2019-03-29T11:07:58.551Z,59.23
2019-03-29T11:10:34.491Z,61.40
2019-03-29T11:13:13.017Z,59.71
2019-03-29T11:15:39.402Z,59.60
2019-03-29T11:18:10.287Z,60.87
2019-03-29T11:20:41.148Z,61.12
2019-03-29T11:23:11.917Z,62.71
2019-03-29T11:25:48.264Z,59.98
2019-03-29T11:28:17.315Z,60.74
2019-03-29T11:30:49.152Z,60.37
2019-03-29T11:33:20.012Z,60.88
2019-03-29T11:35:50.724Z,60.92
2019-03-29T11:38:21.579Z,59.32
2019-03-29T11:40:52.361Z,59.20
2019-03-29T11:43:27.088Z,59.29
2019-03-29T11:45:55.966Z,59.13
2019-03-29T11:48:29.563Z,59.39
2019-03-29T11:50:59.650Z,59.35
2019-03-29T11:53:30.437Z,58.10
2019-03-29T11:56:01.199Z,55.92
2019-03-29T11:58:32.107Z,56.61
2019-03-29T12:01:05.494Z,55.84
2019-03-29T12:03:35.913Z,56.17
2019-03-29T12:06:06.745Z,55.86
2019-03-29T12:08:37.653Z,54.71
2019-03-29T12:11:12.224Z,55.51
2019-03-29T12:13:43.585Z,56.10
2019-03-29T12:16:14.829Z,55.39
2019-03-29T12:18:45.664Z,55.50
2019-03-29T12:21:16.630Z,57.10
2019-03-29T12:23:47.534Z,56.50
2019-03-29T12:26:18.279Z,54.39
2019-03-29T12:28:49.304Z,53.72
2019-03-29T12:31:20.122Z,54.76
2019-03-29T12:33:50.886Z,54.09
2019-03-29T12:36:21.624Z,56.77
2019-03-29T12:38:52.431Z,56.89
2019-03-29T12:41:29.545Z,55.70
2019-03-29T12:44:08.852Z,56.05
2019-03-29T12:46:45.798Z,55.43
2019-03-29T12:49:26.257Z,55.00
2019-03-29T12:52:05.507Z,55.14
2019-03-29T12:54:45.061Z,55.54
2019-03-29T12:57:22.985Z,54.44
2019-03-29T13:00:02.533Z,53.54
2019-03-29T13:02:43.514Z,53.00
2019-03-29T13:05:22.377Z,54.03
2019-03-29T13:08:03.810Z,54.15
2019-03-29T13:10:44.754Z,52.44
2019-03-29T13:13:22.703Z,53.39
2019-03-29T13:15:55.658Z,53.17
2019-03-29T13:18:26.484Z,51.45
2019-03-29T13:20:57.487Z,53.99
2019-03-29T13:23:28.232Z,52.72
2019-03-29T13:26:03.384Z,54.12
2019-03-29T13:28:35.632Z,54.44
2019-03-29T13:31:07.139Z,52.29
2019-03-29T13:33:42.954Z,50.85
2019-03-29T13:36:20.854Z,52.85
2019-03-29T13:38:59.026Z,51.09
2019-03-29T13:41:40.032Z,52.15
2019-03-29T13:44:24.482Z,52.41
2019-03-29T13:47:03.024Z,53.21
2019-03-29T13:49:47.242Z,53.31
2019-03-29T13:52:27.117Z,53.43
2019-03-29T13:55:04.857Z,51.53
2019-03-29T13:57:36.821Z,51.96
2019-03-29T14:00:11.017Z,51.68
2019-03-29T14:02:42.915Z,51.31
2019-03-29T14:05:13.826Z,51.87
2019-03-29T14:07:46.543Z,51.96
2019-03-29T14:10:17.324Z,52.50
2019-03-29T14:12:48.132Z,52.38
2019-03-29T14:15:19.600Z,52.82
2019-03-29T14:17:50.833Z,52.95
2019-03-29T14:20:32.118Z,52.19
2019-03-29T14:23:03.989Z,53.34
2019-03-29T14:25:34.793Z,55.53
2019-03-29T14:28:05.855Z,55.45
2019-03-29T14:30:37.154Z,55.67
2019-03-29T14:33:08.260Z,54.40
2019-03-29T14:35:39.488Z,54.40
2019-03-29T14:38:10.610Z,53.90
2019-03-29T14:40:42.843Z,55.00
2019-03-29T14:43:13.733Z,54.19
2019-03-29T14:45:44.877Z,53.51
2019-03-29T14:48:16.780Z,52.01
2019-03-29T14:50:47.992Z,51.86
2019-03-29T14:53:18.806Z,52.71
2019-03-29T14:55:49.724Z,54.14
2019-03-29T14:58:21.108Z,52.90
2019-03-29T15:00:51.833Z,53.92
2019-03-29T15:03:22.781Z,51.50
2019-03-29T15:05:53.667Z,52.33
2019-03-29T15:08:25.417Z,52.88
2019-03-29T15:10:56.182Z,51.84
2019-03-29T15:13:28.378Z,51.89
2019-03-29T15:15:59.480Z,52.14
2019-03-29T15:18:30.490Z,52.85
2019-03-29T15:21:01.449Z,53.83
2019-03-29T15:23:32.474Z,53.87
2019-03-29T15:26:05.604Z,52.69
2019-03-29T15:28:37.597Z,54.67
2019-03-29T15:31:08.650Z,54.62
2019-03-29T15:33:39.656Z,55.60
2019-03-29T15:36:11.642Z,56.03
2019-03-29T15:38:42.454Z,55.40
2019-03-29T15:41:13.219Z,55.71
2019-03-29T15:43:44.259Z,55.57
2019-03-29T15:46:16.075Z,55.36
2019-03-29T15:48:48.296Z,54.83
2019-03-29T15:51:19.203Z,55.68
2019-03-29T15:53:50.032Z,56.20
2019-03-29T15:56:20.793Z,56.37
2019-03-29T15:58:53.879Z,56.15
2019-03-29T16:01:24.705Z,55.42
2019-03-29T16:03:55.755Z,56.14
2019-03-29T16:06:26.557Z,55.40
2019-03-29T16:08:57.738Z,55.98
2019-03-29T16:11:28.611Z,56.49
2019-03-29T16:13:59.516Z,56.53
2019-03-29T16:16:30.364Z,56.35
2019-03-29T16:19:01.433Z,56.16
2019-03-29T16:21:32.283Z,55.81
2019-03-29T16:24:03.126Z,56.12
2019-03-29T16:26:33.936Z,56.24
2019-03-29T16:29:04.913Z,56.43
2019-03-29T16:31:36.005Z,56.96
2019-03-29T16:34:07.057Z,56.61
2019-03-29T16:36:38.894Z,56.00
2019-03-29T16:39:09.740Z,56.96
2019-03-29T16:41:40.582Z,57.43
2019-03-29T16:44:11.491Z,57.62
2019-03-29T16:46:43.534Z,57.44
2019-03-29T16:49:14.375Z,58.26
2019-03-29T16:51:45.139Z,58.64
2019-03-29T16:54:16.003Z,58.93
2019-03-29T16:56:47.210Z,58.93
2019-03-29T16:59:18.031Z,59.06
2019-03-29T17:01:51.264Z,59.14
2019-03-29T17:04:21.572Z,59.51
2019-03-29T17:06:52.354Z,59.55
2019-03-29T17:09:23.265Z,60.10
2019-03-29T17:11:54.064Z,60.48
2019-03-29T17:14:24.946Z,61.04
2019-03-29T17:16:55.718Z,61.21
2019-03-29T17:19:26.562Z,62.16
2019-03-29T17:21:57.375Z,62.52
2019-03-29T17:24:28.297Z,62.92
2019-03-29T17:26:59.053Z,63.31
2019-03-29T17:29:29.818Z,63.41
2019-03-29T17:32:01.008Z,63.66
2019-03-29T17:34:32.426Z,63.53
2019-03-29T17:37:03.269Z,63.99
2019-03-29T17:39:34.185Z,63.75
2019-03-29T17:42:05.039Z,64.09
2019-03-29T17:44:35.980Z,64.81
2019-03-29T17:47:06.790Z,65.39
2019-03-29T17:49:37.635Z,65.46
2019-03-29T17:52:08.452Z,65.58
2019-03-29T17:54:39.368Z,65.74
2019-03-29T17:57:10.110Z,66.22
2019-03-29T17:59:40.931Z,66.21
2019-03-29T18:02:11.780Z,66.37
2019-03-29T18:04:42.908Z,67.69
2019-03-29T18:07:13.675Z,67.74
2019-03-29T18:09:44.738Z,67.86
2019-03-29T18:12:16.070Z,68.02
2019-03-29T18:14:46.961Z,69.70
2019-03-29T18:17:17.734Z,70.37
2019-03-29T18:19:48.673Z,72.45
2019-03-29T18:22:19.516Z,72.78
2019-03-29T18:24:50.367Z,71.86
2019-03-29T18:27:21.143Z,72.71
2019-03-29T18:29:51.924Z,72.97
2019-03-29T18:32:23.960Z,72.98
2019-03-29T18:34:55.299Z,72.62
2019-03-29T18:37:26.212Z,72.73
2019-03-29T18:39:57.106Z,73.17
2019-03-29T18:42:27.818Z,73.47
2019-03-29T18:44:58.691Z,73.66
2019-03-29T18:47:29.552Z,73.92
2019-03-29T18:50:00.466Z,74.00
2019-03-29T18:52:31.269Z,74.06
2019-03-29T18:55:02.103Z,73.92
2019-03-29T18:57:32.906Z,74.45
2019-03-29T19:00:03.833Z,74.48
2019-03-29T19:02:34.958Z,74.66
2019-03-29T19:05:06.408Z,75.76
2019-03-29T19:07:37.527Z,76.39
2019-03-29T19:10:08.553Z,76.66
2019-03-29T19:12:39.313Z,76.76
2019-03-29T19:15:29.735Z,76.92
2019-03-29T19:18:07.027Z,77.75
2019-03-29T19:20:37.941Z,77.45
2019-03-29T19:23:08.778Z,77.11
2019-03-29T19:25:39.634Z,77.78
2019-03-29T19:28:10.517Z,78.09
2019-03-29T19:30:41.295Z,77.13
2019-03-29T19:33:12.040Z,77.03
2019-03-29T19:35:42.997Z,78.50
2019-03-29T19:38:13.846Z,78.07
2019-03-29T19:40:44.611Z,78.54
2019-03-29T19:43:15.505Z,79.01
2019-03-29T19:45:46.258Z,78.86
2019-03-29T19:48:17.058Z,78.52
2019-03-29T19:50:48.053Z,79.51
2019-03-29T19:53:18.899Z,79.77
2019-03-29T19:56:01.902Z,80.23
2019-03-29T19:58:48.475Z,79.96
2019-03-29T20:04:09.775Z,79.98
2019-03-29T20:06:41.011Z,80.11
2019-03-29T20:09:11.833Z,80.04
2019-03-29T20:11:42.918Z,80.44
2019-03-29T20:14:13.678Z,80.74
2019-03-29T20:16:44.464Z,80.33
2019-03-29T20:19:15.270Z,80.45
2019-03-29T20:21:46.208Z,80.38
2019-03-29T20:24:16.934Z,79.75
2019-03-29T20:26:47.748Z,79.81
2019-03-29T20:29:18.570Z,80.27
2019-03-29T20:31:50.687Z,81.03
2019-03-29T20:34:22.602Z,81.46
2019-03-29T20:36:53.575Z,81.88
2019-03-29T20:39:24.534Z,83.20
2019-03-29T20:41:58.983Z,83.89
2019-03-29T20:44:29.763Z,84.50
2019-03-29T20:47:04.419Z,84.92
2019-03-29T20:49:35.565Z,85.65
2019-03-29T20:52:06.547Z,84.95
2019-03-29T20:54:37.299Z,84.50
2019-03-29T20:57:08.069Z,84.99
2019-03-29T20:59:38.888Z,84.99
2019-03-29T21:02:09.649Z,85.94
2019-03-29T21:04:40.392Z,87.46
2019-03-29T21:07:11.865Z,88.05
2019-03-29T21:09:42.660Z,87.61
2019-03-29T21:12:21.385Z,86.85
2019-03-29T21:14:53.364Z,85.33
2019-03-29T21:17:24.154Z,84.49
2019-03-29T21:19:55.715Z,84.07
2019-03-29T21:22:27.650Z,83.91
2019-03-29T21:24:58.404Z,83.55
2019-03-29T21:27:29.961Z,82.35
2019-03-29T21:30:00.808Z,82.39
2019-03-29T21:32:31.686Z,83.39
2019-03-29T21:35:02.416Z,84.90
2019-03-29T21:37:33.195Z,85.04
2019-03-29T21:40:04.242Z,85.25
2019-03-29T21:42:35.008Z,85.76
2019-03-29T21:45:06.409Z,87.09
2019-03-29T21:47:37.382Z,86.66
2019-03-29T21:50:09.290Z,86.73
2019-03-29T21:52:40.266Z,86.30
2019-03-29T21:55:11.076Z,86.96
2019-03-29T21:57:42.148Z,88.23
2019-03-29T22:00:13.636Z,89.34
2019-03-29T22:02:45.060Z,89.82
2019-03-29T22:05:15.797Z,90.23
2019-03-29T22:07:47.169Z,90.44
2019-03-29T22:10:18.017Z,90.27
2019-03-29T22:12:48.917Z,89.98
2019-03-29T22:15:19.757Z,88.70
2019-03-29T22:17:50.500Z,86.85
2019-03-29T22:20:21.288Z,85.01
2019-03-29T22:22:52.194Z,83.77
2019-03-29T22:25:22.939Z,84.62
2019-03-29T22:27:53.712Z,86.10
2019-03-29T22:30:24.545Z,86.89
2019-03-29T22:32:55.488Z,87.14
2019-03-29T22:35:26.208Z,87.03
2019-03-29T22:37:57.093Z,86.20
2019-03-29T22:40:27.875Z,85.95
2019-03-29T22:42:58.647Z,86.23
2019-03-29T22:45:29.393Z,85.62
2019-03-29T22:48:00.254Z,85.66
2019-03-29T22:50:31.074Z,87.10
2019-03-29T22:53:01.890Z,87.74
2019-03-29T22:55:32.632Z,88.23
2019-03-29T22:58:03.388Z,87.97
2019-03-29T23:00:37.543Z,89.24
2019-03-29T23:03:10.061Z,89.14
2019-03-29T23:05:40.791Z,88.73
2019-03-29T23:08:11.562Z,88.76
2019-03-29T23:10:42.348Z,89.00
2019-03-29T23:13:13.583Z,89.25
2019-03-29T23:15:44.325Z,88.66
2019-03-29T23:18:15.066Z,88.79
2019-03-29T23:20:45.861Z,89.03
2019-03-29T23:23:16.795Z,88.51
2019-03-29T23:25:48.148Z,87.82
2019-03-29T23:28:18.993Z,87.81
2019-03-29T23:30:49.851Z,87.30
2019-03-29T23:33:20.700Z,87.11
2019-03-29T23:35:51.521Z,86.85
2019-03-29T23:38:22.511Z,87.27
2019-03-29T23:40:53.301Z,88.00
2019-03-29T23:43:24.148Z,88.13
2019-03-29T23:45:54.970Z,88.22
2019-03-29T23:48:25.827Z,87.82
2019-03-29T23:50:56.626Z,88.00
2019-03-29T23:53:27.614Z,87.45
2019-03-29T23:55:58.324Z,87.15
2019-03-29T23:58:29.123Z,87.46
